BAF weather

Public forecast

Using degrees Fahrenheit for public forecast. Weather courtesy of forecast.io.

Current aviation weather report (METAR) for Westfield-Barnes Regional Airport

Retrieved 2020/08/14 06:53 UTC (51 minutes ago):

KBAF 140653Z AUTO 36005KT 10SM CLR 17/16 A3007 RMK AO2 SLP180 T01720161

Aviation forecast (TAF) for Westfield-Barnes Regional Airport

Retrieved 2020/08/14 06:42 UTC (1 hour ago):

TAF KBAF 140540Z 1406/1506 34003KT P6SM SKC FM141000 36003KT P6SM SCT250 FM141500 03004KT P6SM SCT250 FM142100 07005KT P6SM BKN070 FM150000 05005KT P6SM BKN120 FM150500 02005KT P6SM SCT150